Time;durP1;ratioP1;P1;durP2;ratioP2;P2;SDS_P1;SDS_P2;PMS_P1;PMS_P2;Temp;Humidity;BMP_temperature;BMP_pressure;BME280_temperature;BME280_humidity;BME280_pressure;Samples;Min_cycle;Max_cycle;Signal;HPM_P1;HPM_P2
2023/04/04 00:00:00;;;;;;;1.50;1.40;;;9.60;99.90;;;9.66;77.43;93544.72;5014002;28;20453;-56
2023/04/04 00:02:28;;;;;;;1.70;1.50;;;9.60;99.90;;;9.65;77.53;93555.41;5014740;28;20467;-64
2023/04/04 00:04:55;;;;;;;3.20;1.83;;;9.60;99.90;;;9.66;77.79;93555.22;5013084;28;20468;-56
2023/04/04 00:07:23;;;;;;;3.80;2.20;;;9.60;99.90;;;9.65;78.19;93545.72;5014905;28;20450;-64
2023/04/04 00:09:52;;;;;;;3.93;2.00;;;9.60;99.90;;;9.66;77.88;93536.84;5006836;28;20457;-64
2023/04/04 00:12:19;;;;;;;2.20;2.00;;;9.60;99.90;;;9.71;78.27;93546.03;5012362;28;20535;-63
2023/04/04 00:14:46;;;;;;;6.60;3.40;;;9.70;99.90;;;9.73;78.06;93533.56;5011719;28;20453;-57
2023/04/04 00:17:14;;;;;;;10.93;3.30;;;9.70;99.90;;;9.75;77.85;93531.59;5012037;28;20575;-64
2023/04/04 00:19:41;;;;;;;4.20;3.90;;;9.70;99.90;;;9.75;77.41;93536.84;5021162;28;20897;-57
2023/04/04 00:22:08;;;;;;;6.50;3.60;;;9.70;99.90;;;9.71;77.15;93531.09;5011315;28;20474;-64
2023/04/04 00:24:36;;;;;;;14.13;4.53;;;9.70;99.90;;;9.68;77.94;93527.03;5012146;28;20458;-64
2023/04/04 00:27:05;;;;;;;4.97;4.27;;;9.60;99.90;;;9.66;77.80;93528.97;5016044;28;20466;-56
2023/04/04 00:29:33;;;;;;;5.80;5.03;;;9.60;99.90;;;9.65;77.93;93526.50;5011933;28;20491;-64
2023/04/04 00:32:02;;;;;;;11.07;5.13;;;9.60;99.90;;;9.64;77.65;93524.91;5012736;28;20526;-56
2023/04/04 00:34:29;;;;;;;6.00;3.33;;;9.60;99.90;;;9.63;78.39;93528.50;5012467;28;20453;-64
2023/04/04 00:36:57;;;;;;;3.60;3.30;;;9.60;99.90;;;9.62;78.32;93522.44;5009190;28;20497;-55
2023/04/04 00:39:25;;;;;;;3.27;2.93;;;9.60;99.90;;;9.62;78.47;93518.97;5013166;28;20460;-63
2023/04/04 00:41:52;;;;;;;7.83;3.50;;;9.60;99.90;;;9.62;78.59;93518.97;5010018;28;20503;-63
2023/04/04 00:44:21;;;;;;;5.93;2.70;;;9.60;99.90;;;9.62;78.39;93511.94;5010145;28;20458;-55
2023/04/04 00:46:48;;;;;;;4.47;2.83;;;9.60;99.90;;;9.64;78.15;93509.97;5010467;28;20474;-56
2023/04/04 00:49:16;;;;;;;3.20;2.50;;;9.60;99.90;;;9.65;78.35;93508.97;5017666;28;20457;-57
2023/04/04 00:51:43;;;;;;;3.20;2.90;;;9.60;99.90;;;9.66;77.66;93507.16;5005893;28;20604;-64
2023/04/04 00:54:11;;;;;;;3.27;2.97;;;9.60;99.90;;;9.66;77.48;93499.28;5013483;28;20463;-57
2023/04/04 00:56:38;;;;;;;2.30;2.20;;;9.60;99.90;;;9.65;77.42;93501.09;5014211;28;21088;-56
2023/04/04 00:59:06;;;;;;;2.20;2.00;;;9.60;99.90;;;9.64;77.94;93494.19;5018501;28;20469;-64
2023/04/04 01:01:35;;;;;;;3.57;2.80;;;9.60;99.90;;;9.61;78.31;93498.97;5014947;28;20552;-57
2023/04/04 01:04:03;;;;;;;2.97;2.67;;;9.60;99.90;;;9.59;78.06;93504.41;5015984;28;20484;-63
2023/04/04 01:06:31;;;;;;;3.77;2.60;;;9.60;99.90;;;9.60;77.74;93503.38;5019307;28;20746;-64
2023/04/04 01:08:59;;;;;;;6.10;3.80;;;9.50;99.90;;;9.60;77.93;93513.09;5018507;28;20450;-64
2023/04/04 01:11:27;;;;;;;7.93;3.27;;;9.60;99.90;;;9.62;77.84;93513.72;5016508;28;21007;-63
2023/04/04 01:13:54;;;;;;;2.70;2.50;;;9.60;99.90;;;9.63;77.76;93523.25;5018454;28;20452;-56
2023/04/04 01:16:22;;;;;;;7.90;5.47;;;9.60;99.90;;;9.65;78.00;93523.88;5015309;28;20571;-56
2023/04/04 01:18:51;;;;;;;9.27;3.63;;;9.60;99.90;;;9.66;77.18;93518.47;5016647;28;20843;-64
2023/04/04 01:21:20;;;;;;;10.27;3.60;;;9.60;99.90;;;9.66;77.40;93528.97;5015791;28;20489;-56
2023/04/04 01:23:52;;;;;;;5.03;3.93;;;9.60;99.90;;;9.66;77.05;93526.34;5016506;28;20460;-56
2023/04/04 01:26:22;;;;;;;3.00;2.73;;;9.60;99.90;;;9.65;77.13;93532.59;5016772;28;20469;-62
2023/04/04 01:28:49;;;;;;;3.70;3.40;;;9.60;99.90;;;9.61;76.83;93531.28;5017984;28;20450;-63
2023/04/04 01:31:20;;;;;;;3.07;2.77;;;9.60;99.90;;;9.60;76.56;93528.84;5013331;28;20504;-64
2023/04/04 01:33:52;;;;;;;2.67;2.57;;;9.50;99.90;;;9.59;76.72;93519.31;5011517;28;20826;-65
2023/04/04 01:36:24;;;;;;;3.07;2.87;;;9.50;99.90;;;9.57;76.65;93514.22;5016335;28;20498;-56
2023/04/04 01:38:56;;;;;;;2.23;2.13;;;9.50;99.90;;;9.57;76.89;93514.22;5012352;28;20452;-55
2023/04/04 01:41:24;;;;;;;2.73;2.53;;;9.50;99.90;;;9.54;76.39;93504.06;5016987;28;21001;-55
2023/04/04 01:43:52;;;;;;;2.70;2.20;;;9.50;99.90;;;9.56;76.56;93515.22;5017857;28;20473;-63
2023/04/04 01:46:20;;;;;;;3.03;2.83;;;9.50;99.90;;;9.57;76.96;93505.53;5015130;28;20493;-56
2023/04/04 01:48:47;;;;;;;4.47;3.00;;;9.50;99.90;;;9.58;77.14;93500.13;5013426;28;20456;-56
2023/04/04 01:51:14;;;;;;;3.30;3.10;;;9.50;99.90;;;9.61;77.51;93493.72;5015902;28;20796;-55
2023/04/04 01:53:41;;;;;;;3.00;2.80;;;9.50;99.90;;;9.66;77.54;93494.03;5010867;28;20879;-62
2023/04/04 01:56:09;;;;;;;2.53;2.33;;;9.60;99.90;;;9.67;77.23;93486.00;5014196;28;20493;-61
2023/04/04 01:58:38;;;;;;;9.80;2.80;;;9.60;99.90;;;9.68;77.26;93471.88;5016901;28;20855;-64
2023/04/04 02:01:05;;;;;;;2.53;2.33;;;9.60;99.90;;;9.71;77.43;93469.91;5011574;28;20511;-64
2023/04/04 02:03:33;;;;;;;2.73;2.53;;;9.70;99.90;;;9.73;77.23;93470.53;5015251;28;21902;-57
2023/04/04 02:06:00;;;;;;;4.60;3.13;;;9.70;99.90;;;9.75;77.25;93477.28;5007149;28;20584;-56
2023/04/04 02:08:28;;;;;;;3.43;2.90;;;9.70;99.90;;;9.79;77.42;93480.38;5008303;28;20535;-56
2023/04/04 02:10:58;;;;;;;3.47;3.27;;;9.70;99.90;;;9.81;77.39;93484.47;5010578;28;20477;-64
2023/04/04 02:13:25;;;;;;;3.60;3.30;;;9.80;99.90;;;9.83;77.49;93479.06;5012462;28;20977;-56
2023/04/04 02:15:54;;;;;;;4.73;3.57;;;9.70;99.90;;;9.85;77.43;93475.28;5008601;28;20913;-64
2023/04/04 02:18:22;;;;;;;3.20;3.00;;;9.80;99.90;;;9.87;77.31;93473.28;5016217;28;20548;-56
2023/04/04 02:20:56;;;;;;;5.07;3.40;;;9.80;99.90;;;9.87;76.70;93472.47;5013039;28;20478;-65
2023/04/04 02:23:23;;;;;;;2.97;2.70;;;9.80;99.90;;;9.87;76.46;93469.84;5017388;28;20452;-65
2023/04/04 02:25:51;;;;;;;3.10;2.90;;;9.80;99.90;;;9.85;76.70;93461.31;5015226;28;20465;-56
2023/04/04 02:28:19;;;;;;;3.93;2.87;;;9.80;99.90;;;9.83;76.46;93465.91;5020524;28;20453;-65
2023/04/04 02:30:47;;;;;;;3.40;3.10;;;9.80;99.90;;;9.82;76.64;93461.66;5018921;28;21004;-56
2023/04/04 02:33:17;;;;;;;3.57;3.20;;;9.80;99.90;;;9.80;76.46;93476.75;5019697;28;20706;-62
2023/04/04 02:35:47;;;;;;;2.70;2.50;;;9.80;99.90;;;9.78;76.27;93468.25;5017612;28;20470;-66
2023/04/04 02:38:14;;;;;;;2.20;2.00;;;9.70;99.90;;;9.75;76.11;93463.34;5018479;28;20569;-63
2023/04/04 02:40:42;;;;;;;8.00;2.40;;;9.70;99.90;;;9.73;75.95;93478.41;5020098;28;20568;-56
2023/04/04 02:43:11;;;;;;;2.70;2.50;;;9.70;99.90;;;9.67;76.11;93480.75;5019518;28;20464;-62
2023/04/04 02:45:38;;;;;;;2.67;2.47;;;9.60;99.90;;;9.65;76.19;93485.34;5016175;28;21002;-57
2023/04/04 02:48:06;;;;;;;2.60;2.40;;;9.60;99.90;;;9.65;76.45;93485.34;5019665;28;20461;-63
2023/04/04 02:50:35;;;;;;;3.83;2.30;;;9.60;99.90;;;9.65;76.52;93482.72;5018015;28;20504;-64
2023/04/04 02:53:03;;;;;;;4.67;2.17;;;9.60;99.90;;;9.65;76.38;93482.72;5019231;28;20465;-56
2023/04/04 02:55:31;;;;;;;2.03;1.93;;;9.60;99.90;;;9.65;76.18;93485.34;5013089;28;20477;-55
2023/04/04 02:58:00;;;;;;;3.80;1.60;;;9.60;99.90;;;9.66;76.22;93480.91;5018304;28;21044;-60
2023/04/04 03:00:27;;;;;;;2.70;1.97;;;9.60;99.90;;;9.65;75.89;93493.22;5015650;28;21533;-66
2023/04/04 03:02:55;;;;;;;2.07;1.80;;;9.60;99.90;;;9.65;75.89;93495.00;5014205;28;20559;-58
2023/04/04 03:05:23;;;;;;;1.80;1.70;;;9.60;99.90;;;9.66;76.02;93497.47;5014778;28;20524;-56
2023/04/04 03:07:56;;;;;;;2.23;2.13;;;9.60;99.90;;;9.69;76.15;93496.31;5016385;28;20993;-63
2023/04/04 03:10:23;;;;;;;2.90;2.47;;;9.60;99.90;;;9.74;76.32;93498.44;5016592;28;21001;-57
2023/04/04 03:12:50;;;;;;;1.90;1.80;;;9.70;99.90;;;9.78;76.56;93499.75;5013548;28;21366;-63
2023/04/04 03:15:18;;;;;;;3.90;2.30;;;9.70;99.90;;;9.81;76.70;93502.84;5013415;28;20484;-56
2023/04/04 03:17:45;;;;;;;2.07;1.97;;;9.70;99.90;;;9.84;76.67;93497.25;5012706;28;20613;-58
2023/04/04 03:20:14;;;;;;;3.13;2.77;;;9.80;99.90;;;9.87;76.47;93509.25;5014506;28;21124;-56
2023/04/04 03:22:41;;;;;;;3.10;2.20;;;9.80;99.90;;;9.89;76.50;93507.25;5011770;28;20454;-64
2023/04/04 03:25:10;;;;;;;3.40;2.80;;;9.90;99.90;;;9.91;76.48;93494.78;5010637;28;20535;-57
2023/04/04 03:27:38;;;;;;;3.33;2.73;;;9.90;99.90;;;9.92;76.61;93496.41;5011916;28;20503;-65
2023/04/04 03:30:08;;;;;;;3.53;3.30;;;9.90;99.90;;;9.94;76.48;93497.06;5012618;28;20464;-56
2023/04/04 03:32:36;;;;;;;3.30;3.10;;;9.90;99.90;;;9.96;76.53;93497.72;5011011;28;20981;-63
2023/04/04 03:35:04;;;;;;;9.00;3.60;;;9.90;99.90;;;9.97;76.64;93499.34;5014985;28;20811;-55
2023/04/04 03:37:32;;;;;;;3.40;3.20;;;9.90;99.90;;;10.00;76.80;93487.69;5013343;28;20485;-65
2023/04/04 03:39:59;;;;;;;6.17;4.27;;;10.00;99.90;;;10.02;76.41;93491.78;5011118;28;20966;-64
2023/04/04 03:42:28;;;;;;;3.93;3.60;;;9.90;99.90;;;10.04;76.72;93489.00;5012129;28;20532;-56
2023/04/04 03:44:55;;;;;;;5.13;3.20;;;10.00;99.90;;;10.05;76.58;93491.44;5013656;28;20858;-65
2023/04/04 03:47:23;;;;;;;4.27;3.87;;;10.00;99.90;;;10.05;76.76;93501.97;5011924;28;20557;-65
2023/04/04 03:49:51;;;;;;;3.83;3.53;;;10.00;99.90;;;10.05;76.65;93488.81;5015789;28;20462;-61
2023/04/04 03:52:18;;;;;;;5.50;4.23;;;10.00;99.90;;;10.07;76.54;93490.44;5009020;28;20477;-64
2023/04/04 03:54:46;;;;;;;5.10;4.20;;;10.00;99.90;;;10.08;76.80;93497.34;5010253;28;20458;-65
2023/04/04 03:57:13;;;;;;;5.23;3.90;;;10.00;99.90;;;10.07;76.70;93488.66;5013184;28;20497;-64
2023/04/04 03:59:42;;;;;;;7.50;4.50;;;10.00;99.90;;;10.08;76.74;93489.47;5013267;28;20473;-57
2023/04/04 04:02:10;;;;;;;8.47;5.63;;;10.00;99.90;;;10.08;76.63;93494.72;5012627;28;20500;-65
2023/04/04 04:04:37;;;;;;;5.67;4.87;;;10.00;99.90;;;10.09;76.59;93494.53;5015477;28;20972;-55
2023/04/04 04:07:04;;;;;;;8.23;5.60;;;10.00;99.90;;;10.10;76.80;93493.56;5015525;28;20480;-65
2023/04/04 04:09:31;;;;;;;8.60;5.83;;;10.00;99.90;;;10.11;76.85;93497.00;5016649;28;20461;-64
2023/04/04 04:11:59;;;;;;;8.37;6.03;;;10.10;99.90;;;10.12;76.77;93494.22;5008770;28;20489;-64
2023/04/04 04:14:26;;;;;;;6.70;4.90;;;10.10;99.90;;;10.14;76.75;93496.66;5012286;28;20449;-56
2023/04/04 04:16:55;;;;;;;8.53;6.43;;;10.10;99.90;;;10.15;76.87;93491.22;5009599;28;20493;-64
2023/04/04 04:19:22;;;;;;;9.80;6.00;;;10.10;99.90;;;10.16;76.73;93497.31;5014265;28;21859;-56
2023/04/04 04:21:50;;;;;;;8.33;6.17;;;10.10;99.90;;;10.18;76.87;93497.97;5012584;28;21021;-65
2023/04/04 04:24:17;;;;;;;9.60;6.13;;;10.10;99.90;;;10.20;76.70;93501.22;5014312;28;20472;-64
2023/04/04 04:26:44;;;;;;;11.23;5.90;;;10.10;99.90;;;10.22;76.68;93501.88;5009668;28;20493;-66
2023/04/04 04:29:12;;;;;;;8.20;6.77;;;10.20;99.90;;;10.22;76.50;93497.44;5014894;28;20450;-56
2023/04/04 04:31:40;;;;;;;8.50;7.20;;;10.20;99.90;;;10.25;76.49;93506.78;5015106;28;20477;-57
2023/04/04 04:34:09;;;;;;;10.13;9.03;;;10.20;99.90;;;10.27;76.63;93510.06;5018409;28;20467;-68
2023/04/04 04:36:36;;;;;;;12.63;9.37;;;10.20;99.90;;;10.28;76.35;93521.41;5016248;28;20879;-65
2023/04/04 04:39:04;;;;;;;20.10;12.00;;;10.20;99.90;;;10.29;76.33;93523.03;5013412;28;20574;-58
2023/04/04 04:41:31;;;;;;;23.87;13.83;;;10.20;99.90;;;10.31;76.17;93526.31;5015773;28;20663;-57
2023/04/04 04:43:59;;;;;;;19.70;13.90;;;10.20;99.90;;;10.30;76.28;93525.50;5010925;28;20476;-67
2023/04/04 04:46:26;;;;;;;25.20;15.63;;;10.20;99.90;;;10.30;76.51;93530.75;5014477;28;20481;-63
2023/04/04 04:48:53;;;;;;;16.70;12.80;;;10.20;99.90;;;10.32;76.50;93538.47;5017301;28;20458;-66
2023/04/04 04:51:22;;;;;;;19.77;13.80;;;10.20;99.90;;;10.32;76.92;93539.28;5013032;28;20484;-65
2023/04/04 04:53:50;;;;;;;21.23;12.90;;;10.30;99.90;;;10.32;76.35;93538.47;5015617;28;20458;-55
2023/04/04 04:56:17;;;;;;;19.30;13.77;;;10.30;99.90;;;10.33;76.33;93543.59;5013268;28;20861;-58
2023/04/04 04:58:46;;;;;;;18.70;13.70;;;10.30;99.90;;;10.32;76.57;93544.53;5012094;28;20508;-64
2023/04/04 05:01:13;;;;;;;20.70;13.00;;;10.30;99.90;;;10.34;76.63;93547.84;5017177;28;20505;-66
2023/04/04 05:03:41;;;;;;;17.57;12.30;;;10.30;99.90;;;10.35;76.47;93551.31;5012043;28;20459;-56
2023/04/04 05:06:08;;;;;;;16.43;12.43;;;10.30;99.90;;;10.38;76.60;93556.22;5012485;28;20480;-64
2023/04/04 05:08:37;;;;;;;14.77;11.17;;;10.30;99.90;;;10.38;76.87;93557.03;5020707;28;20456;-63
2023/04/04 05:11:04;;;;;;;22.77;12.80;;;10.30;99.90;;;10.38;76.74;93559.66;5020403;28;21272;-64
2023/04/04 05:13:32;;;;;;;20.57;12.27;;;10.30;99.90;;;10.39;76.72;93565.72;5018433;28;20449;-56
2023/04/04 05:15:59;;;;;;;25.50;14.37;;;10.30;99.90;;;10.42;76.96;93561.94;5015938;28;20532;-65
2023/04/04 05:18:27;;;;;;;24.10;14.03;;;10.40;99.90;;;10.44;76.57;93559.94;5021653;28;20496;-57
2023/04/04 05:20:54;;;;;;;15.57;11.03;;;10.40;99.90;;;10.47;76.51;93564.88;5019155;28;20581;-64
2023/04/04 05:23:22;;;;;;;17.27;11.07;;;10.40;99.90;;;10.51;76.54;93574.06;5018111;28;20454;-64
2023/04/04 05:25:52;;;;;;;16.60;10.97;;;10.40;99.90;;;10.53;76.34;93566.81;5016808;28;20467;-56
2023/04/04 05:28:19;;;;;;;14.87;10.47;;;10.50;99.90;;;10.57;76.56;93573.38;5015351;28;20449;-58
2023/04/04 05:30:46;;;;;;;10.27;8.80;;;10.50;99.90;;;10.61;76.53;93577.28;5016589;28;20500;-57
2023/04/04 05:33:14;;;;;;;9.43;7.90;;;10.50;99.90;;;10.66;76.53;93577.59;5014731;28;20516;-64
2023/04/04 05:35:41;;;;;;;10.50;9.13;;;10.60;99.90;;;10.72;76.21;93570.81;5016180;28;20619;-57
2023/04/04 05:38:09;;;;;;;9.37;8.40;;;10.60;99.90;;;10.77;76.01;93577.19;5017855;28;20856;-57
2023/04/04 05:40:36;;;;;;;9.73;8.00;;;10.70;99.90;;;10.85;76.10;93588.69;5016367;28;20481;-64
2023/04/04 05:43:05;;;;;;;8.80;8.00;;;10.80;99.90;;;10.88;75.68;93578.63;5017197;28;20453;-57
2023/04/04 05:45:32;;;;;;;10.50;8.67;;;10.80;99.90;;;10.91;75.64;93582.72;5015687;28;20468;-64
2023/04/04 05:48:00;;;;;;;15.20;9.23;;;10.80;99.90;;;10.94;75.90;93598.16;5017589;28;20454;-66
2023/04/04 05:50:27;;;;;;;9.47;8.50;;;10.90;99.90;;;10.98;75.72;93594.16;5015462;28;20478;-57
2023/04/04 05:52:55;;;;;;;10.13;8.60;;;10.90;99.90;;;11.04;75.71;93592.66;5016110;28;20465;-65
2023/04/04 05:55:23;;;;;;;10.20;9.13;;;10.90;99.90;;;11.07;75.50;93590.50;5019010;28;20512;-65
2023/04/04 05:57:50;;;;;;;12.93;10.00;;;11.00;99.90;;;11.11;75.28;93601.50;5014906;28;20491;-56
2023/04/04 06:00:20;;;;;;;10.10;9.07;;;11.00;99.90;;;11.09;75.21;93593.78;5016153;28;20477;-64
2023/04/04 06:02:47;;;;;;;10.40;8.40;;;11.00;99.90;;;11.10;74.96;93594.59;5018329;28;20445;-66
2023/04/04 06:05:15;;;;;;;13.67;10.27;;;11.00;99.90;;;11.07;75.00;93601.03;5018371;28;20450;-56
2023/04/04 06:07:42;;;;;;;11.60;9.40;;;11.00;99.90;;;11.06;76.01;93596.78;5014384;28;20449;-56
2023/04/04 06:10:10;;;;;;;10.70;8.23;;;11.00;99.90;;;11.08;76.38;93596.59;5011566;28;20457;-57
2023/04/04 06:12:38;;;;;;;6.37;5.77;;;11.00;99.90;;;11.11;76.23;93604.16;5013451;28;20547;-57
2023/04/04 06:15:07;;;;;;;4.37;3.97;;;11.00;99.90;;;11.07;75.13;93616.00;5016201;28;20452;-57
2023/04/04 06:17:36;;;;;;;2.43;2.23;;;11.00;99.90;;;11.02;74.06;93619.16;5015076;28;20509;-57
2023/04/04 06:20:03;;;;;;;1.20;1.10;;;10.90;99.90;;;10.89;70.56;93624.16;5015028;28;20628;-56
2023/04/04 06:22:31;;;;;;;1.10;0.90;;;10.80;99.90;;;10.71;71.26;93633.13;5016476;28;20453;-57
2023/04/04 06:24:59;;;;;;;1.07;0.83;;;10.70;99.90;;;10.54;70.35;93636.81;5014332;28;20871;-65
2023/04/04 06:27:26;;;;;;;0.80;0.60;;;10.50;99.90;;;10.33;70.87;93634.72;5011366;28;20457;-65
2023/04/04 06:29:54;;;;;;;1.60;0.90;;;10.40;99.90;;;10.13;69.90;93634.25;5014676;28;20465;-57
2023/04/04 06:32:21;;;;;;;0.80;0.70;;;10.20;99.90;;;10.00;69.05;93640.03;5013462;28;20529;-65
2023/04/04 06:34:50;;;;;;;0.80;0.50;;;10.00;99.90;;;9.82;68.98;93648.09;5016518;28;20489;-62
2023/04/04 06:37:17;;;;;;;0.80;0.50;;;9.90;99.90;;;9.65;69.84;93660.41;5012502;28;20472;-64
2023/04/04 06:39:45;;;;;;;1.07;0.97;;;9.70;99.90;;;9.51;69.61;93667.13;5015384;28;20456;-63
2023/04/04 06:42:12;;;;;;;1.10;0.87;;;9.60;99.90;;;9.41;69.57;93676.97;5016122;28;20508;-64
2023/04/04 06:44:40;;;;;;;0.80;0.50;;;9.50;99.90;;;9.29;68.34;93679.88;5017632;28;20464;-65
2023/04/04 06:47:07;;;;;;;2.20;0.87;;;9.40;99.90;;;9.18;68.62;93682.03;5014773;28;20861;-63
2023/04/04 06:49:34;;;;;;;1.00;0.73;;;9.20;99.90;;;9.10;69.06;93695.94;5015189;28;20445;-64
2023/04/04 06:52:04;;;;;;;0.93;0.83;;;9.10;99.90;;;9.02;68.41;93683.63;5013409;28;20496;-58
2023/04/04 06:54:32;;;;;;;0.90;0.60;;;9.10;99.90;;;8.94;68.37;93688.84;5014408;28;20476;-63
2023/04/04 06:56:59;;;;;;;1.13;0.70;;;9.00;99.90;;;8.87;67.85;93700.94;5014561;28;20470;-57
2023/04/04 06:59:26;;;;;;;0.80;0.57;;;8.90;99.90;;;8.78;67.79;93700.91;5018698;28;20832;-63
2023/04/04 07:01:54;;;;;;;0.80;0.60;;;8.90;99.90;;;8.70;68.10;93700.06;5015266;28;20474;-65
2023/04/04 07:04:21;;;;;;;0.80;0.50;;;8.80;99.90;;;8.60;67.76;93706.22;5015496;28;20466;-65
2023/04/04 07:06:48;;;;;;;0.90;0.53;;;8.70;99.90;;;8.52;68.01;93714.06;5011748;28;20485;-57
2023/04/04 07:09:17;;;;;;;2.17;0.80;;;8.60;99.90;;;8.43;67.23;93725.44;5019917;28;20457;-56
2023/04/04 07:11:45;;;;;;;1.97;1.00;;;8.50;99.90;;;8.30;66.94;93732.88;5017487;28;20478;-65
2023/04/04 07:14:13;;;;;;;2.10;0.60;;;8.40;99.90;;;8.22;67.05;93744.13;5016668;28;21035;-58
2023/04/04 07:16:40;;;;;;;1.20;1.10;;;8.30;99.90;;;8.13;67.26;93747.66;5019908;28;20476;-57
2023/04/04 07:19:08;;;;;;;0.90;0.77;;;8.20;99.90;;;8.00;66.87;93763.78;5020408;28;20524;-56
2023/04/04 07:21:35;;;;;;;1.97;0.90;;;8.10;99.90;;;7.84;67.43;93757.44;5015032;28;20476;-64
2023/04/04 07:24:02;;;;;;;1.20;1.10;;;8.00;99.90;;;7.73;67.56;93768.16;5013806;28;20566;-56
2023/04/04 07:26:32;;;;;;;1.10;0.90;;;7.90;99.90;;;7.67;66.10;93776.59;5016188;28;20481;-64
2023/04/04 07:29:00;;;;;;;0.80;0.57;;;7.80;99.90;;;7.61;66.30;93775.38;5014973;28;20460;-57
2023/04/04 07:31:27;;;;;;;1.00;0.80;;;7.70;99.90;;;7.55;67.21;93794.28;5013753;28;20512;-64
2023/04/04 07:33:55;;;;;;;0.83;0.60;;;7.70;99.90;;;7.50;67.41;93797.34;5014110;28;20461;-67
2023/04/04 07:36:22;;;;;;;0.80;0.60;;;7.60;99.90;;;7.49;67.57;93800.13;5014215;28;20473;-66
2023/04/04 07:38:49;;;;;;;0.80;0.70;;;7.60;99.90;;;7.47;67.00;93810.72;5009613;28;20627;-65
2023/04/04 07:41:17;;;;;;;1.10;0.70;;;7.50;99.90;;;7.44;66.01;93818.88;5010697;28;20472;-57
2023/04/04 07:43:46;;;;;;;0.73;0.50;;;7.50;99.90;;;7.39;66.38;93810.66;5014872;28;20993;-64
2023/04/04 07:46:13;;;;;;;0.90;0.60;;;7.50;99.90;;;7.35;66.86;93819.75;5010940;28;20523;-64
2023/04/04 07:48:40;;;;;;;1.10;1.00;;;7.50;99.90;;;7.31;66.36;93824.47;5010175;28;20454;-65
2023/04/04 07:51:08;;;;;;;1.80;0.70;;;7.40;99.90;;;7.27;66.02;93815.25;5012081;28;20488;-55
2023/04/04 07:53:35;;;;;;;1.37;0.60;;;7.40;99.90;;;7.25;65.70;93818.97;5022055;28;20452;-65
2023/04/04 07:56:05;;;;;;;3.20;1.00;;;7.30;99.90;;;7.23;65.69;93821.72;5012038;28;21042;-56
2023/04/04 07:58:32;;;;;;;0.80;0.60;;;7.30;99.90;;;7.20;66.11;93819.41;5010577;28;20500;-66
2023/04/04 08:01:01;;;;;;;0.83;0.80;;;7.30;99.90;;;7.13;65.78;93827.00;5013667;28;21009;-56
2023/04/04 08:03:29;;;;;;;0.83;0.63;;;7.20;99.90;;;7.05;66.40;93818.22;5008991;28;21345;-64
2023/04/04 08:05:56;;;;;;;1.00;0.80;;;7.20;99.90;;;6.98;65.94;93824.03;5017765;28;20469;-56
2023/04/04 08:08:23;;;;;;;1.53;1.13;;;7.10;99.90;;;6.94;66.79;93827.94;5015450;28;20545;-56
2023/04/04 08:10:51;;;;;;;1.20;1.10;;;7.10;99.90;;;6.92;65.93;93819.38;5012549;28;20865;-57
2023/04/04 08:13:18;;;;;;;2.70;1.30;;;7.00;99.90;;;6.93;66.29;93831.50;5012249;28;20458;-55
2023/04/04 08:15:45;;;;;;;2.63;1.20;;;7.00;99.90;;;6.95;66.17;93839.19;5018419;28;20465;-57
2023/04/04 08:18:14;;;;;;;3.70;1.93;;;7.00;99.90;;;6.98;66.32;93838.91;5012536;28;21097;-57
2023/04/04 08:20:41;;;;;;;5.10;2.07;;;7.00;99.90;;;7.01;66.50;93836.00;5016438;28;20547;-57
2023/04/04 08:23:09;;;;;;;1.77;1.50;;;7.10;99.90;;;7.03;66.21;93846.31;5015529;28;20454;-57
2023/04/04 08:25:36;;;;;;;0.97;0.70;;;7.10;99.90;;;7.02;65.31;93845.50;5015200;28;20596;-58
2023/04/04 08:28:04;;;;;;;1.00;0.90;;;7.10;99.90;;;7.02;65.70;93860.34;5015681;28;20539;-58
2023/04/04 08:30:31;;;;;;;1.37;0.90;;;7.10;99.90;;;7.04;65.92;93871.50;5021430;28;20474;-65
2023/04/04 08:32:59;;;;;;;0.90;0.80;;;7.10;99.90;;;7.07;66.16;93879.88;5014354;28;20543;-58
2023/04/04 08:35:27;;;;;;;1.00;0.90;;;7.10;99.90;;;7.06;65.42;93875.63;5014366;28;20483;-57
2023/04/04 08:37:56;;;;;;;1.00;0.90;;;7.20;99.90;;;7.00;65.04;93878.78;5012985;28;20456;-65
2023/04/04 08:40:23;;;;;;;1.00;0.90;;;7.10;99.90;;;6.91;65.07;93871.81;5014504;28;20466;-56
2023/04/04 08:42:51;;;;;;;1.20;0.83;;;7.00;99.90;;;6.84;64.31;93875.97;5016785;28;20830;-57
2023/04/04 08:45:19;;;;;;;1.77;0.80;;;7.00;99.90;;;6.75;64.49;93878.44;5008350;28;20504;-57
2023/04/04 08:47:47;;;;;;;2.00;0.90;;;6.90;99.90;;;6.69;64.92;93876.41;5016877;28;21036;-65
2023/04/04 08:50:14;;;;;;;2.30;0.83;;;6.80;99.90;;;6.71;65.13;93873.66;5013167;28;20518;-65
2023/04/04 08:52:43;;;;;;;1.50;1.00;;;6.80;99.90;;;6.73;64.72;93877.78;5015169;28;20484;-65
2023/04/04 08:55:11;;;;;;;1.00;0.90;;;6.80;99.90;;;6.79;65.28;93886.84;5014535;28;20476;-65
2023/04/04 08:57:38;;;;;;;1.60;1.50;;;6.90;99.90;;;6.81;65.20;93896.19;5014373;28;20536;-58
2023/04/04 09:00:07;;;;;;;1.93;1.07;;;6.90;99.90;;;6.78;64.05;93900.88;5010187;28;20891;-57
2023/04/04 09:02:39;;;;;;;0.87;0.73;;;6.90;99.90;;;6.76;64.74;93908.84;5011548;28;20815;-55
2023/04/04 09:05:08;;;;;;;1.20;0.97;;;6.90;99.90;;;6.72;64.15;93909.28;5015856;28;20532;-57
2023/04/04 09:07:37;;;;;;;1.53;1.00;;;6.80;99.90;;;6.65;64.09;93911.63;5010579;28;20454;-69
2023/04/04 09:10:08;;;;;;;2.07;1.27;;;6.80;99.90;;;6.60;64.78;93899.00;5010813;28;20501;-65
2023/04/04 09:12:35;;;;;;;2.00;1.50;;;6.70;99.90;;;6.64;64.17;93909.97;5008484;28;20453;-57
2023/04/04 09:15:03;;;;;;;1.23;1.13;;;6.80;99.90;;;6.69;64.56;93907.75;5013135;28;20464;-57
2023/04/04 09:17:31;;;;;;;1.20;1.10;;;6.80;99.90;;;6.74;64.62;93902.94;5012731;28;20470;-65
2023/04/04 09:20:02;;;;;;;1.00;0.80;;;6.80;99.90;;;6.84;64.10;93907.34;5014168;28;20889;-57
2023/04/04 09:22:30;;;;;;;1.20;0.80;;;6.90;99.90;;;6.90;64.29;93910.19;5013681;28;20922;-67
2023/04/04 09:24:57;;;;;;;0.97;0.87;;;7.00;99.90;;;6.94;64.06;93908.13;5012398;28;20480;-66
2023/04/04 09:27:26;;;;;;;1.40;1.30;;;7.00;99.90;;;6.96;64.04;93908.81;5018967;28;20465;-66
2023/04/04 09:29:55;;;;;;;1.10;1.00;;;7.00;99.90;;;6.96;64.02;93898.38;5019786;28;20463;-66
2023/04/04 09:32:23;;;;;;;0.80;0.80;;;7.10;99.90;;;7.00;63.59;93920.63;5018041;28;20458;-65
2023/04/04 09:34:51;;;;;;;1.57;1.00;;;7.10;99.90;;;6.94;62.71;93921.19;5012940;28;20468;-65
2023/04/04 09:37:19;;;;;;;1.93;1.43;;;7.10;99.90;;;6.84;62.71;93925.63;5017263;28;20563;-65
2023/04/04 09:39:46;;;;;;;1.07;0.87;;;7.00;99.90;;;6.78;62.86;93925.22;5016414;28;20481;-58
2023/04/04 09:42:13;;;;;;;1.10;1.00;;;6.90;99.90;;;6.76;62.72;93924.53;5019673;28;20538;-66
2023/04/04 09:44:43;;;;;;;1.30;1.17;;;6.90;99.90;;;6.76;63.33;93927.16;5016560;28;20497;-57
2023/04/04 09:47:26;;;;;;;3.33;0.93;;;6.90;99.90;;;6.78;62.35;93938.28;5017936;28;20488;-57
2023/04/04 09:49:55;;;;;;;2.90;1.50;;;6.90;99.90;;;6.80;63.54;93931.13;5016215;28;20475;-67
2023/04/04 09:52:22;;;;;;;2.23;2.13;;;6.90;99.90;;;6.84;62.92;93936.09;5018928;28;20445;-58
2023/04/04 09:54:57;;;;;;;2.97;2.30;;;6.90;99.90;;;6.88;63.14;93940.06;5019371;28;20832;-66
2023/04/04 09:57:26;;;;;;;1.37;1.27;;;7.00;99.90;;;6.88;62.52;93934.81;5017031;28;20460;-56
2023/04/04 10:00:00;;;;;;;2.50;1.60;;;7.00;99.90;;;6.87;62.06;93944.47;5018186;28;20493;-57
2023/04/04 10:02:28;;;;;;;1.50;1.40;;;7.00;99.90;;;6.87;62.58;93936.63;5015824;28;20528;-56
2023/04/04 10:04:56;;;;;;;1.27;1.03;;;7.00;99.90;;;6.86;61.78;93936.75;5014831;28;20445;-66
2023/04/04 10:07:25;;;;;;;1.27;1.17;;;7.00;99.90;;;6.87;62.54;93946.25;5017753;28;21282;-56
2023/04/04 10:09:53;;;;;;;1.07;0.97;;;6.90;99.90;;;6.88;61.18;93932.22;5017253;28;20456;-57
2023/04/04 10:12:23;;;;;;;1.00;0.90;;;7.00;99.50;;;6.87;61.43;93935.81;5017413;28;20475;-66
2023/04/04 10:14:57;;;;;;;4.47;2.10;;;7.00;99.30;;;6.83;62.15;93940.47;5015065;28;20504;-65
2023/04/04 10:17:25;;;;;;;2.70;1.00;;;7.00;99.70;;;6.81;61.80;93937.19;5013619;28;20507;-56
2023/04/04 10:19:53;;;;;;;4.90;3.17;;;6.90;99.90;;;6.81;62.17;93943.22;5018516;28;20543;-67
2023/04/04 10:22:22;;;;;;;1.13;0.97;;;6.90;99.80;;;6.81;61.63;93948.44;5012156;28;21033;-66
2023/04/04 10:24:49;;;;;;;1.20;1.10;;;6.90;99.80;;;6.84;62.40;93957.81;5018848;28;20460;-66
2023/04/04 10:27:17;;;;;;;1.20;1.10;;;6.90;99.90;;;6.84;61.76;93949.16;5020448;28;20518;-57
2023/04/04 10:29:44;;;;;;;1.53;1.43;;;7.00;99.30;;;6.82;61.42;93952.72;5022224;28;20449;-66